createdAt,value
2023-04-18T00:01:16.230Z,58.17
2023-04-18T00:03:42.469Z,58.60
2023-04-18T00:06:08.830Z,58.50
2023-04-18T00:08:34.933Z,58.31
2023-04-18T00:11:01.105Z,58.66
2023-04-18T00:13:27.236Z,58.32
2023-04-18T00:15:53.456Z,59.00
2023-04-18T00:18:19.588Z,59.01
2023-04-18T00:20:45.726Z,58.37
2023-04-18T00:23:13.380Z,58.99
2023-04-18T00:25:39.629Z,59.40
2023-04-18T00:28:05.782Z,59.16
2023-04-18T00:30:31.929Z,58.92
2023-04-18T00:32:58.154Z,59.38
2023-04-18T00:35:24.283Z,60.19
2023-04-18T00:37:50.408Z,60.64
2023-04-18T00:40:16.500Z,61.24
2023-04-18T00:42:42.633Z,60.83
2023-04-18T00:45:08.786Z,60.44
2023-04-18T00:47:34.911Z,61.40
2023-04-18T00:50:01.025Z,61.50
2023-04-18T00:52:27.257Z,61.56
2023-04-18T00:54:53.382Z,61.61
2023-04-18T00:57:19.481Z,62.30
2023-04-18T00:59:45.561Z,62.06
2023-04-18T01:02:11.706Z,61.90
2023-04-18T01:04:37.873Z,61.88
2023-04-18T01:07:04.001Z,61.88
2023-04-18T01:09:30.205Z,61.83
2023-04-18T01:11:56.323Z,61.51
2023-04-18T01:14:22.597Z,61.36
2023-04-18T01:16:48.728Z,61.21
2023-04-18T01:19:14.818Z,61.70
2023-04-18T01:21:40.903Z,60.76
2023-04-18T01:24:06.988Z,61.52
2023-04-18T01:26:33.116Z,61.76
2023-04-18T01:28:59.237Z,61.39
2023-04-18T01:31:25.400Z,61.35
2023-04-18T01:33:51.520Z,61.68
2023-04-18T01:36:17.615Z,61.94
2023-04-18T01:38:43.752Z,61.39
2023-04-18T01:41:09.862Z,60.84
2023-04-18T01:43:35.947Z,60.96
2023-04-18T01:46:02.046Z,61.33
2023-04-18T01:48:28.145Z,60.91
2023-04-18T01:50:54.247Z,60.72
2023-04-18T01:53:20.357Z,60.84
2023-04-18T01:55:46.470Z,60.87
2023-04-18T01:58:12.563Z,61.11
2023-04-18T02:00:38.695Z,62.19
2023-04-18T02:03:05.055Z,61.52
2023-04-18T02:05:31.301Z,61.37
2023-04-18T02:07:57.398Z,61.00
2023-04-18T02:10:23.498Z,60.71
2023-04-18T02:12:49.612Z,60.49
2023-04-18T02:15:15.839Z,59.80
2023-04-18T02:17:42.126Z,60.37
2023-04-18T02:20:08.401Z,60.50
2023-04-18T02:22:34.503Z,60.95
2023-04-18T02:25:00.622Z,60.97
2023-04-18T02:27:26.747Z,61.14
2023-04-18T02:29:52.870Z,61.48
2023-04-18T02:32:18.978Z,61.84
2023-04-18T02:34:45.082Z,60.95
2023-04-18T02:37:11.205Z,61.12
2023-04-18T02:39:37.304Z,61.25
2023-04-18T02:42:03.403Z,61.32
2023-04-18T02:44:29.506Z,60.62
2023-04-18T02:46:55.602Z,59.57
2023-04-18T02:49:21.719Z,60.03
2023-04-18T02:51:47.862Z,60.58
2023-04-18T02:54:14.177Z,60.93
2023-04-18T02:56:40.548Z,60.39
2023-04-18T02:59:06.636Z,60.28
2023-04-18T03:01:32.766Z,60.03
2023-04-18T03:03:58.874Z,60.72
2023-04-18T03:06:24.982Z,61.05
2023-04-18T03:08:51.088Z,60.64
2023-04-18T03:11:17.177Z,60.30
2023-04-18T03:13:43.276Z,60.43
2023-04-18T03:16:09.379Z,61.39
2023-04-18T03:18:35.526Z,61.41
2023-04-18T03:21:01.642Z,61.01
2023-04-18T03:23:27.763Z,60.72
2023-04-18T03:25:53.872Z,61.67
2023-04-18T03:28:19.958Z,61.57
2023-04-18T03:30:46.086Z,61.14
2023-04-18T03:33:12.172Z,60.44
2023-04-18T03:35:38.268Z,60.86
2023-04-18T03:38:04.384Z,61.52
2023-04-18T03:40:30.516Z,61.58
2023-04-18T03:42:56.629Z,61.22
2023-04-18T03:45:22.743Z,62.21
2023-04-18T03:47:48.882Z,62.60
2023-04-18T03:50:15.013Z,62.21
2023-04-18T03:52:41.110Z,61.63
2023-04-18T03:55:07.208Z,60.81
2023-04-18T03:57:33.348Z,60.54
2023-04-18T03:59:59.475Z,60.21
2023-04-18T04:02:25.722Z,61.04
2023-04-18T04:04:52.007Z,61.36
2023-04-18T04:07:18.187Z,61.02
2023-04-18T04:09:44.291Z,60.96
2023-04-18T04:12:10.375Z,61.62
2023-04-18T04:14:36.487Z,61.38
2023-04-18T04:17:02.579Z,60.97
2023-04-18T04:19:28.675Z,60.63
2023-04-18T04:21:54.752Z,61.29
2023-04-18T04:24:20.856Z,62.33
2023-04-18T04:26:46.965Z,61.46
2023-04-18T04:29:13.093Z,61.59
2023-04-18T04:31:39.250Z,61.49
2023-04-18T04:34:05.356Z,61.03
2023-04-18T04:36:31.446Z,61.17
2023-04-18T04:38:57.540Z,60.44
2023-04-18T04:41:23.630Z,60.20
2023-04-18T04:43:49.764Z,60.47
2023-04-18T04:46:15.897Z,60.45
2023-04-18T04:48:42.081Z,60.73
2023-04-18T04:51:08.192Z,60.91
2023-04-18T04:53:34.333Z,61.33
2023-04-18T04:56:00.446Z,60.71
2023-04-18T04:58:26.553Z,60.04
2023-04-18T05:00:52.844Z,59.97
2023-04-18T05:03:19.170Z,59.71
2023-04-18T05:05:45.418Z,59.64
2023-04-18T05:08:11.514Z,60.35
2023-04-18T05:10:37.601Z,60.49
2023-04-18T05:13:03.700Z,60.92
2023-04-18T05:15:29.812Z,60.31
2023-04-18T05:17:55.993Z,60.51
2023-04-18T05:20:22.172Z,60.27
2023-04-18T05:22:48.273Z,60.31
2023-04-18T05:25:14.413Z,61.28
2023-04-18T05:27:40.528Z,60.78
2023-04-18T05:30:06.644Z,60.04
2023-04-18T05:32:33.825Z,60.38
2023-04-18T05:34:59.966Z,60.00
2023-04-18T05:37:26.084Z,59.53
2023-04-18T05:39:52.194Z,58.91
2023-04-18T05:42:18.313Z,58.64
2023-04-18T05:44:44.422Z,58.56
2023-04-18T05:47:10.536Z,58.65
2023-04-18T05:49:36.648Z,58.15
2023-04-18T05:52:02.771Z,58.36
2023-04-18T05:54:28.868Z,58.40
2023-04-18T05:56:54.971Z,58.56
2023-04-18T05:59:21.093Z,58.43
2023-04-18T06:01:47.201Z,58.60
2023-04-18T06:04:13.784Z,57.71
2023-04-18T06:06:40.373Z,58.33
2023-04-18T06:09:06.480Z,58.12
2023-04-18T06:11:32.596Z,57.53
2023-04-18T06:13:58.701Z,56.63
2023-04-18T06:16:24.860Z,57.84
2023-04-18T06:18:50.993Z,58.34
2023-04-18T06:21:17.095Z,58.43
2023-04-18T06:23:43.189Z,57.70
2023-04-18T06:26:09.312Z,57.21
2023-04-18T06:28:35.417Z,56.51
2023-04-18T06:31:01.545Z,57.36
2023-04-18T06:33:27.665Z,56.78
2023-04-18T06:35:53.766Z,57.58
2023-04-18T06:38:19.874Z,56.62
2023-04-18T06:40:45.967Z,56.69
2023-04-18T06:43:12.071Z,56.34
2023-04-18T06:45:38.268Z,56.22
2023-04-18T06:48:04.439Z,56.07
2023-04-18T06:50:30.583Z,56.09
2023-04-18T06:52:56.706Z,54.98
2023-04-18T06:55:22.800Z,54.43
2023-04-18T06:57:48.931Z,53.27
2023-04-18T07:00:15.063Z,52.70
2023-04-18T07:02:41.354Z,51.74
2023-04-18T07:05:07.536Z,50.31
2023-04-18T07:07:33.624Z,49.18
2023-04-18T07:09:59.809Z,48.81
2023-04-18T07:12:25.900Z,49.23
2023-04-18T07:14:52.010Z,47.64
2023-04-18T07:17:18.190Z,48.85
2023-04-18T07:19:44.301Z,47.55
2023-04-18T07:22:10.412Z,46.46
2023-04-18T07:24:36.519Z,46.52
2023-04-18T07:27:02.636Z,46.38
2023-04-18T07:29:28.743Z,44.73
2023-04-18T07:31:54.900Z,44.77
2023-04-18T07:34:21.004Z,44.70
2023-04-18T07:36:47.107Z,45.08
2023-04-18T07:39:13.232Z,45.18
2023-04-18T07:41:39.338Z,45.27
2023-04-18T07:44:05.507Z,45.95
2023-04-18T07:46:31.671Z,44.08
2023-04-18T07:48:57.838Z,44.08
2023-04-18T07:51:23.938Z,44.67
2023-04-18T07:53:50.049Z,45.05
2023-04-18T07:56:16.169Z,45.03
2023-04-18T07:58:42.287Z,45.06
2023-04-18T08:01:08.526Z,44.78
2023-04-18T08:03:34.818Z,45.22
2023-04-18T08:06:01.021Z,43.26
2023-04-18T08:08:27.112Z,42.06
2023-04-18T08:10:53.220Z,42.89
2023-04-18T08:13:19.367Z,41.78
2023-04-18T08:15:45.506Z,40.59
2023-04-18T08:18:11.622Z,40.67
2023-04-18T08:20:37.751Z,40.79
2023-04-18T08:23:08.560Z,38.27
2023-04-18T08:25:36.741Z,39.72
2023-04-18T08:28:02.965Z,39.41
2023-04-18T08:30:29.062Z,39.92
2023-04-18T08:32:55.277Z,39.26
2023-04-18T08:35:21.444Z,38.49
2023-04-18T08:37:47.561Z,38.66
2023-04-18T08:40:13.670Z,38.73
2023-04-18T08:42:39.775Z,39.56
2023-04-18T08:45:05.887Z,39.30
2023-04-18T08:47:32.192Z,37.87
2023-04-18T08:49:58.351Z,37.70
2023-04-18T08:52:24.456Z,36.92
2023-04-18T08:54:50.573Z,37.59
2023-04-18T08:57:16.706Z,37.34
2023-04-18T08:59:43.856Z,37.24
2023-04-18T09:02:11.214Z,36.62
2023-04-18T09:04:37.391Z,37.12
2023-04-18T09:07:03.552Z,36.92
2023-04-18T09:09:29.651Z,36.67
2023-04-18T09:11:55.772Z,36.94
2023-04-18T09:14:21.872Z,38.27
2023-04-18T09:16:47.987Z,37.96
2023-04-18T09:19:14.372Z,35.18
2023-04-18T09:21:40.749Z,36.86
2023-04-18T09:24:06.836Z,35.89
2023-04-18T09:26:32.936Z,34.66
2023-04-18T09:28:59.094Z,34.65
2023-04-18T09:31:25.334Z,30.36
2023-04-18T09:33:51.481Z,33.87
2023-04-18T09:36:17.563Z,34.62
2023-04-18T09:38:43.652Z,35.82
2023-04-18T09:41:09.750Z,33.06
2023-04-18T09:43:35.851Z,36.92
2023-04-18T09:46:02.037Z,35.79
2023-04-18T09:48:28.355Z,32.83
2023-04-18T09:50:54.506Z,33.25
2023-04-18T09:53:21.092Z,33.40
2023-04-18T09:55:47.594Z,32.91
2023-04-18T09:58:13.782Z,33.39
2023-04-18T10:00:40.028Z,34.96
2023-04-18T10:03:06.271Z,31.74
2023-04-18T10:05:32.536Z,34.82
2023-04-18T10:07:58.677Z,34.13
2023-04-18T10:10:24.802Z,33.53
2023-04-18T10:12:50.975Z,35.15
2023-04-18T10:15:17.093Z,34.63
2023-04-18T10:17:52.702Z,33.83
2023-04-18T10:20:26.672Z,33.29
2023-04-18T10:22:52.848Z,33.08
2023-04-18T10:25:18.946Z,32.82
2023-04-18T10:27:45.041Z,32.13
2023-04-18T10:30:11.158Z,33.04
2023-04-18T10:32:37.324Z,32.47
2023-04-18T10:35:03.465Z,33.01
2023-04-18T10:37:29.630Z,33.36
2023-04-18T10:39:55.752Z,32.93
2023-04-18T10:42:21.870Z,33.07
2023-04-18T10:44:47.991Z,33.07
2023-04-18T10:47:14.147Z,32.37
2023-04-18T10:49:40.296Z,33.55
2023-04-18T10:52:06.409Z,32.83
2023-04-18T10:54:32.529Z,33.79
2023-04-18T10:56:58.687Z,31.48
2023-04-18T10:59:24.791Z,32.92
2023-04-18T11:01:50.959Z,31.74
2023-04-18T11:04:17.484Z,32.27
2023-04-18T11:06:43.775Z,31.54
2023-04-18T11:09:09.910Z,32.48
2023-04-18T11:11:36.089Z,30.23
2023-04-18T11:14:02.199Z,31.26
2023-04-18T11:16:28.311Z,30.41
2023-04-18T11:18:54.615Z,29.66
2023-04-18T11:21:20.715Z,28.55
2023-04-18T11:23:46.829Z,29.33
2023-04-18T11:26:12.946Z,31.12
2023-04-18T11:28:39.069Z,30.22
2023-04-18T11:31:05.167Z,28.72
2023-04-18T11:33:31.297Z,29.73
2023-04-18T11:35:57.407Z,29.19
2023-04-18T11:38:24.296Z,30.22
2023-04-18T11:40:50.594Z,29.54
2023-04-18T11:43:16.858Z,29.46
2023-04-18T11:45:42.994Z,27.68
2023-04-18T11:48:09.194Z,29.09
2023-04-18T11:50:35.327Z,27.46
2023-04-18T11:53:01.415Z,26.84
2023-04-18T11:55:27.509Z,26.02
2023-04-18T11:57:53.669Z,27.62
2023-04-18T12:00:19.822Z,26.36
2023-04-18T12:02:46.129Z,27.29
2023-04-18T12:05:12.724Z,26.47
2023-04-18T12:07:39.028Z,27.09
2023-04-18T12:10:05.167Z,27.37
2023-04-18T12:12:31.302Z,25.44
2023-04-18T12:14:57.423Z,25.56
2023-04-18T12:17:23.652Z,25.21
2023-04-18T12:19:49.866Z,24.17
2023-04-18T12:22:16.077Z,23.93
2023-04-18T12:24:42.203Z,24.55
2023-04-18T12:27:08.294Z,23.24
2023-04-18T12:29:34.420Z,23.03
2023-04-18T12:32:00.588Z,24.19
2023-04-18T12:34:26.724Z,23.97
2023-04-18T12:36:52.822Z,21.91
2023-04-18T12:39:18.949Z,22.68
2023-04-18T12:41:45.054Z,23.05
2023-04-18T12:44:11.200Z,23.26
2023-04-18T12:46:37.464Z,25.17
2023-04-18T12:49:03.640Z,24.39
2023-04-18T12:51:29.745Z,23.86
2023-04-18T12:53:55.860Z,23.48
2023-04-18T12:56:21.980Z,24.79
2023-04-18T12:58:48.096Z,26.80
2023-04-18T13:01:14.323Z,27.32
2023-04-18T13:03:40.601Z,27.58
2023-04-18T13:06:06.842Z,27.05
2023-04-18T13:08:32.936Z,26.71
2023-04-18T13:10:59.047Z,27.52
2023-04-18T13:13:25.140Z,26.76
2023-04-18T13:15:51.306Z,27.69
2023-04-18T13:18:17.455Z,27.47
2023-04-18T13:20:43.543Z,27.09
2023-04-18T13:23:09.657Z,27.45
2023-04-18T13:25:35.768Z,28.23
2023-04-18T13:28:01.922Z,28.98
2023-04-18T13:30:28.086Z,28.90
2023-04-18T13:32:54.234Z,28.26
2023-04-18T13:35:20.436Z,28.47
2023-04-18T13:37:46.525Z,27.87
2023-04-18T13:40:13.040Z,27.61
2023-04-18T13:42:39.189Z,27.48
2023-04-18T13:45:05.308Z,28.31
2023-04-18T13:47:31.480Z,27.54
2023-04-18T13:49:57.679Z,28.49
2023-04-18T13:52:23.889Z,27.80
2023-04-18T13:54:49.995Z,27.98
2023-04-18T13:57:16.097Z,26.93
2023-04-18T13:59:42.198Z,26.35
2023-04-18T14:02:08.506Z,24.63
2023-04-18T14:04:34.854Z,24.00
2023-04-18T14:07:01.020Z,24.75
2023-04-18T14:09:27.116Z,23.86
2023-04-18T14:11:53.228Z,23.54
2023-04-18T14:14:19.365Z,25.06
2023-04-18T14:16:45.469Z,25.27
2023-04-18T14:19:11.667Z,25.30
2023-04-18T14:21:37.834Z,25.97
2023-04-18T14:24:03.954Z,25.71
2023-04-18T14:26:30.091Z,25.38
2023-04-18T14:28:56.182Z,25.54
2023-04-18T14:31:22.373Z,27.63
2023-04-18T14:33:48.536Z,28.15
2023-04-18T14:36:14.642Z,27.48
2023-04-18T14:38:40.745Z,27.58
2023-04-18T14:41:06.978Z,28.52
2023-04-18T14:43:33.099Z,27.08
2023-04-18T14:45:59.822Z,25.40
2023-04-18T14:48:26.106Z,24.51
2023-04-18T14:50:52.198Z,23.71
2023-04-18T14:53:18.633Z,23.78
2023-04-18T14:55:44.739Z,23.65
2023-04-18T14:58:10.918Z,24.69
2023-04-18T15:00:37.023Z,24.30
2023-04-18T15:03:03.254Z,25.55
2023-04-18T15:05:29.451Z,25.80
2023-04-18T15:07:55.576Z,26.32
2023-04-18T15:10:21.697Z,28.06
2023-04-18T15:12:47.833Z,26.55
2023-04-18T15:15:13.942Z,26.64
2023-04-18T15:17:40.171Z,26.63
2023-04-18T15:20:06.349Z,26.37
2023-04-18T15:22:32.469Z,25.10
2023-04-18T15:24:58.593Z,26.85
2023-04-18T15:27:24.697Z,27.29
2023-04-18T15:29:50.790Z,27.35
2023-04-18T15:32:16.952Z,27.31
2023-04-18T15:34:43.100Z,27.37
2023-04-18T15:37:09.211Z,27.69
2023-04-18T15:39:35.317Z,27.79
2023-04-18T15:42:01.433Z,28.69
2023-04-18T15:44:27.521Z,30.67
2023-04-18T15:46:53.616Z,31.77
2023-04-18T15:49:19.710Z,31.47
2023-04-18T15:51:45.798Z,31.41
2023-04-18T15:54:12.047Z,31.00
2023-04-18T15:56:38.249Z,30.90
2023-04-18T15:59:04.345Z,30.97
2023-04-18T16:01:30.562Z,30.73
2023-04-18T16:03:56.830Z,31.23
2023-04-18T16:06:22.960Z,32.04
2023-04-18T16:08:49.053Z,31.37
2023-04-18T16:11:15.160Z,31.07
2023-04-18T16:13:41.303Z,32.43
2023-04-18T16:16:07.449Z,31.01
2023-04-18T16:18:33.591Z,31.93
2023-04-18T16:20:59.776Z,32.01
2023-04-18T16:23:25.880Z,32.27
2023-04-18T16:25:52.016Z,32.76
2023-04-18T16:28:18.138Z,33.27
2023-04-18T16:30:44.276Z,34.61
2023-04-18T16:33:10.493Z,34.37
2023-04-18T16:35:36.713Z,34.91
2023-04-18T16:38:02.836Z,35.25
2023-04-18T16:40:28.934Z,34.94
2023-04-18T16:42:55.060Z,35.22
2023-04-18T16:45:21.173Z,35.68
2023-04-18T16:47:47.329Z,35.02
2023-04-18T16:50:13.497Z,35.63
2023-04-18T16:52:39.617Z,35.50
2023-04-18T16:55:05.750Z,36.48
2023-04-18T16:57:31.841Z,36.27
2023-04-18T16:59:57.980Z,36.37
2023-04-18T17:02:24.221Z,36.98
2023-04-18T17:04:50.529Z,36.79
2023-04-18T17:07:16.678Z,37.36
2023-04-18T17:09:42.776Z,37.49
2023-04-18T17:12:08.889Z,37.56
2023-04-18T17:14:35.039Z,37.56
2023-04-18T17:17:01.133Z,37.61
2023-04-18T17:19:27.258Z,37.29
2023-04-18T17:21:53.368Z,37.89
2023-04-18T17:24:19.494Z,38.26
2023-04-18T17:26:45.605Z,37.86
2023-04-18T17:29:11.765Z,37.75
2023-04-18T17:31:37.955Z,38.01
2023-04-18T17:34:04.102Z,38.25
2023-04-18T17:36:30.203Z,37.26
2023-04-18T17:38:56.352Z,36.75
2023-04-18T17:41:22.510Z,36.33
2023-04-18T17:43:48.664Z,35.54
2023-04-18T17:46:14.922Z,35.90
2023-04-18T17:48:41.065Z,36.19
2023-04-18T17:51:07.176Z,36.23
2023-04-18T17:53:33.269Z,36.44
2023-04-18T17:55:59.385Z,36.59
2023-04-18T17:58:25.494Z,36.88
2023-04-18T18:00:51.610Z,36.39
2023-04-18T18:03:17.824Z,37.66
2023-04-18T18:05:44.093Z,39.91
2023-04-18T18:08:10.210Z,40.67
2023-04-18T18:10:36.310Z,40.12
2023-04-18T18:13:02.420Z,39.12
2023-04-18T18:15:28.566Z,39.58
2023-04-18T18:17:54.692Z,41.58
2023-04-18T18:20:20.813Z,42.32
2023-04-18T18:22:46.941Z,43.34
2023-04-18T18:25:13.089Z,42.73
2023-04-18T18:27:39.292Z,43.18
2023-04-18T18:30:05.393Z,43.23
2023-04-18T18:32:31.597Z,43.02
2023-04-18T18:34:57.802Z,43.40
2023-04-18T18:37:23.962Z,43.38
2023-04-18T18:39:50.068Z,43.20
2023-04-18T18:42:16.197Z,44.14
2023-04-18T18:44:42.317Z,44.88
2023-04-18T18:47:08.412Z,44.91
2023-04-18T18:49:34.614Z,45.09
2023-04-18T18:52:00.730Z,45.56
2023-04-18T18:54:26.839Z,46.16
2023-04-18T18:56:52.949Z,45.67
2023-04-18T18:59:19.093Z,45.99
2023-04-18T19:01:45.233Z,46.26
2023-04-18T19:04:11.592Z,46.80
2023-04-18T19:06:37.785Z,46.60
2023-04-18T19:09:03.876Z,46.81
2023-04-18T19:11:30.047Z,47.04
2023-04-18T19:13:56.141Z,47.45
2023-04-18T19:16:22.272Z,46.97
2023-04-18T19:18:48.522Z,47.34
2023-04-18T19:21:14.637Z,47.59
2023-04-18T19:23:40.733Z,47.67
2023-04-18T19:26:06.848Z,48.13
2023-04-18T19:28:32.952Z,48.46
2023-04-18T19:30:59.085Z,48.39
2023-04-18T19:33:25.198Z,48.25
2023-04-18T19:35:51.284Z,48.15
2023-04-18T19:38:17.417Z,48.45
2023-04-18T19:40:43.525Z,47.29
2023-04-18T19:43:09.657Z,48.25
2023-04-18T19:45:35.836Z,48.73
2023-04-18T19:48:01.941Z,49.51
2023-04-18T19:50:28.073Z,49.07
2023-04-18T19:52:54.196Z,48.86
2023-04-18T19:55:20.293Z,49.30
2023-04-18T19:57:46.401Z,49.62
2023-04-18T20:00:12.621Z,50.09
2023-04-18T20:02:38.877Z,50.28
2023-04-18T20:05:05.295Z,49.69
2023-04-18T20:07:31.542Z,49.77
2023-04-18T20:09:57.648Z,50.37
2023-04-18T20:12:23.734Z,50.56
2023-04-18T20:14:49.822Z,50.87
2023-04-18T20:17:15.924Z,50.90
2023-04-18T20:19:42.038Z,50.86
2023-04-18T20:22:08.161Z,51.06
2023-04-18T20:24:34.272Z,49.82
2023-04-18T20:27:00.373Z,49.67
2023-04-18T20:29:26.457Z,50.63
2023-04-18T20:31:52.585Z,51.18
2023-04-18T20:34:18.705Z,51.29
2023-04-18T20:36:44.830Z,51.71
2023-04-18T20:39:10.940Z,51.94
2023-04-18T20:41:37.096Z,51.91
2023-04-18T20:44:03.266Z,52.22
2023-04-18T20:46:29.420Z,52.36
2023-04-18T20:48:55.575Z,52.15
2023-04-18T20:51:21.704Z,52.32
2023-04-18T20:53:47.803Z,52.29
2023-04-18T20:56:13.898Z,52.35
2023-04-18T20:58:40.010Z,52.78
2023-04-18T21:01:06.141Z,52.56
2023-04-18T21:03:32.478Z,52.54
2023-04-18T21:05:58.690Z,51.83
2023-04-18T21:08:24.798Z,51.39
2023-04-18T21:10:50.943Z,52.22
2023-04-18T21:13:17.080Z,51.99
2023-04-18T21:15:43.259Z,53.29
2023-04-18T21:18:09.543Z,53.17
2023-04-18T21:20:35.713Z,53.11
2023-04-18T21:23:01.995Z,52.91
2023-04-18T21:25:28.107Z,53.21
2023-04-18T21:27:54.215Z,52.48
2023-04-18T21:30:20.356Z,52.30
2023-04-18T21:32:46.473Z,52.66
2023-04-18T21:35:12.597Z,51.72
2023-04-18T21:37:38.687Z,51.37
2023-04-18T21:40:04.804Z,51.87
2023-04-18T21:42:31.029Z,51.97
2023-04-18T21:44:57.186Z,51.43
2023-04-18T21:47:23.334Z,51.40
2023-04-18T21:49:49.484Z,51.88
2023-04-18T21:52:15.606Z,51.70
2023-04-18T21:54:41.777Z,51.86
2023-04-18T21:57:07.873Z,51.82
2023-04-18T21:59:33.967Z,51.70
2023-04-18T22:02:00.149Z,51.62
2023-04-18T22:04:26.667Z,54.68
2023-04-18T22:06:52.961Z,54.86
2023-04-18T22:09:19.067Z,54.27
2023-04-18T22:11:45.187Z,52.50
2023-04-18T22:14:11.300Z,52.21
2023-04-18T22:16:37.396Z,52.15
2023-04-18T22:19:03.565Z,52.45
2023-04-18T22:21:29.684Z,52.73
2023-04-18T22:23:55.802Z,52.45
2023-04-18T22:26:21.916Z,52.39
2023-04-18T22:28:48.018Z,52.59
2023-04-18T22:31:14.183Z,52.46
2023-04-18T22:33:40.302Z,52.06
2023-04-18T22:36:06.394Z,51.99
2023-04-18T22:38:32.507Z,53.47
2023-04-18T22:40:58.614Z,54.18
2023-04-18T22:43:24.737Z,54.51
2023-04-18T22:45:50.899Z,54.33
2023-04-18T22:48:17.096Z,54.18
2023-04-18T22:50:43.213Z,53.69
2023-04-18T22:53:09.335Z,53.90
2023-04-18T22:55:35.482Z,54.32
2023-04-18T22:58:01.567Z,54.27
2023-04-18T23:00:27.666Z,54.35
2023-04-18T23:02:53.889Z,53.54
2023-04-18T23:05:20.035Z,53.48
2023-04-18T23:07:46.151Z,53.57
2023-04-18T23:10:12.274Z,53.41
2023-04-18T23:12:38.396Z,53.57
2023-04-18T23:15:04.478Z,53.46
2023-04-18T23:17:30.633Z,54.40
2023-04-18T23:19:56.729Z,54.73
2023-04-18T23:22:22.827Z,54.40
2023-04-18T23:24:48.953Z,54.34
2023-04-18T23:27:15.044Z,54.06
2023-04-18T23:29:41.140Z,54.24
2023-04-18T23:32:07.219Z,54.16
2023-04-18T23:34:33.314Z,54.19
2023-04-18T23:36:59.425Z,53.47
2023-04-18T23:39:25.509Z,53.24
2023-04-18T23:41:51.621Z,53.14
2023-04-18T23:44:17.709Z,53.24
2023-04-18T23:46:43.858Z,53.50
2023-04-18T23:49:09.983Z,53.23
2023-04-18T23:51:36.074Z,53.07
2023-04-18T23:54:02.163Z,53.04
2023-04-18T23:56:28.289Z,53.63
2023-04-18T23:58:54.457Z,54.06
